createdAt,value
2022-07-28T00:01:12.729Z,24.14
2022-07-28T00:03:41.821Z,24.12
2022-07-28T00:06:09.865Z,23.85
2022-07-28T00:08:37.756Z,24.06
2022-07-28T00:11:05.921Z,23.93
2022-07-28T00:13:33.666Z,23.99
2022-07-28T00:16:01.448Z,23.84
2022-07-28T00:18:29.508Z,23.66
2022-07-28T00:20:58.163Z,23.60
2022-07-28T00:23:37.598Z,23.58
2022-07-28T00:26:09.085Z,23.37
2022-07-28T00:28:36.963Z,23.50
2022-07-28T00:31:10.974Z,23.35
2022-07-28T00:33:42.218Z,23.59
2022-07-28T00:36:11.723Z,23.43
2022-07-28T00:38:44.042Z,23.64
2022-07-28T00:41:13.187Z,23.83
2022-07-28T00:43:46.137Z,23.81
2022-07-28T00:46:17.384Z,23.81
2022-07-28T00:48:48.448Z,23.83
2022-07-28T00:51:17.704Z,23.86
2022-07-28T00:53:46.295Z,23.96
2022-07-28T00:56:14.626Z,23.73
2022-07-28T00:58:42.947Z,23.43
2022-07-28T01:01:15.895Z,24.07
2022-07-28T01:03:47.807Z,24.00
2022-07-28T01:06:37.203Z,24.07
2022-07-28T01:09:23.703Z,24.36
2022-07-28T01:12:19.595Z,24.17
2022-07-28T01:14:54.628Z,24.11
2022-07-28T01:17:40.679Z,23.60
2022-07-28T01:20:33.500Z,23.51
2022-07-28T01:23:07.397Z,23.62
2022-07-28T01:26:06.734Z,23.35
2022-07-28T01:29:09.465Z,23.50
2022-07-28T01:31:41.226Z,23.31
2022-07-28T01:34:13.492Z,23.63
2022-07-28T01:36:57.120Z,23.25
2022-07-28T01:39:32.329Z,23.03
2022-07-28T01:42:03.145Z,23.33
2022-07-28T01:44:35.145Z,23.46
2022-07-28T01:47:07.628Z,23.55
2022-07-28T01:49:37.178Z,23.52
2022-07-28T01:52:08.418Z,23.50
2022-07-28T01:54:42.562Z,23.69
2022-07-28T01:57:14.711Z,23.28
2022-07-28T01:59:44.169Z,23.37
2022-07-28T02:02:16.105Z,23.40
2022-07-28T02:04:45.429Z,23.06
2022-07-28T02:07:14.287Z,23.64
2022-07-28T02:09:44.432Z,23.22
2022-07-28T02:12:15.341Z,23.14
2022-07-28T02:14:43.845Z,23.02
2022-07-28T02:17:15.266Z,23.57
2022-07-28T02:19:46.361Z,23.45
2022-07-28T02:22:16.467Z,23.17
2022-07-28T02:24:47.163Z,23.02
2022-07-28T02:27:24.060Z,22.76
2022-07-28T02:30:22.406Z,23.03
2022-07-28T02:32:57.329Z,23.16
2022-07-28T02:35:41.219Z,23.19
2022-07-28T02:38:25.012Z,23.04
2022-07-28T02:40:55.808Z,22.94
2022-07-28T02:43:50.325Z,22.90
2022-07-28T02:46:22.169Z,22.88
2022-07-28T02:48:56.689Z,22.94
2022-07-28T02:51:27.961Z,22.60
2022-07-28T02:53:57.243Z,22.89
2022-07-28T02:56:26.548Z,22.90
2022-07-28T02:58:55.001Z,22.81
2022-07-28T03:01:23.769Z,22.82
2022-07-28T03:03:55.470Z,22.73
2022-07-28T03:06:26.634Z,22.85
2022-07-28T03:08:57.601Z,22.87
2022-07-28T03:11:25.431Z,22.73
2022-07-28T03:13:53.253Z,22.25
2022-07-28T03:16:21.390Z,22.01
2022-07-28T03:18:50.697Z,22.35
2022-07-28T03:21:18.511Z,22.47
2022-07-28T03:23:49.349Z,22.46
2022-07-28T03:26:27.776Z,22.57
2022-07-28T03:28:57.736Z,22.72
2022-07-28T03:31:27.531Z,22.82
2022-07-28T03:33:56.040Z,22.85
2022-07-28T03:36:29.868Z,22.59
2022-07-28T03:39:02.273Z,22.47
2022-07-28T03:41:32.533Z,22.67
2022-07-28T03:44:01.024Z,22.43
2022-07-28T03:46:29.144Z,22.19
2022-07-28T03:48:56.968Z,22.26
2022-07-28T03:51:26.037Z,22.28
2022-07-28T03:53:53.933Z,22.37
2022-07-28T03:56:21.741Z,22.50
2022-07-28T03:58:50.701Z,22.60
2022-07-28T04:01:18.544Z,22.25
2022-07-28T04:03:46.649Z,22.43
2022-07-28T04:06:15.637Z,22.53
2022-07-28T04:08:44.656Z,22.31
2022-07-28T04:11:13.236Z,22.19
2022-07-28T04:13:41.624Z,22.42
2022-07-28T04:16:09.345Z,22.63
2022-07-28T04:18:37.373Z,23.03
2022-07-28T04:21:07.177Z,23.22
2022-07-28T04:23:35.005Z,23.22
2022-07-28T04:26:03.033Z,23.10
2022-07-28T04:28:31.115Z,23.30
2022-07-28T04:30:58.854Z,23.70
2022-07-28T04:33:26.935Z,23.56
2022-07-28T04:35:54.664Z,23.85
2022-07-28T04:38:22.915Z,24.08
2022-07-28T04:40:50.951Z,23.68
2022-07-28T04:43:19.019Z,23.69
2022-07-28T04:45:53.193Z,23.92
2022-07-28T04:48:23.604Z,23.92
2022-07-28T04:50:53.159Z,24.36
2022-07-28T04:53:22.555Z,24.40
2022-07-28T04:55:53.389Z,24.78
2022-07-28T04:58:23.736Z,25.00
2022-07-28T05:00:51.984Z,25.31
2022-07-28T05:03:20.358Z,25.67
2022-07-28T05:05:51.379Z,25.68
2022-07-28T05:08:26.219Z,25.68
2022-07-28T05:10:56.093Z,25.03
2022-07-28T05:13:28.880Z,25.19
2022-07-28T05:15:59.850Z,25.25
2022-07-28T05:18:27.505Z,25.43
2022-07-28T05:20:55.213Z,25.31
2022-07-28T05:23:23.176Z,25.47
2022-07-28T05:25:51.541Z,25.16
2022-07-28T05:28:19.395Z,25.29
2022-07-28T05:30:47.510Z,25.35
2022-07-28T05:33:16.235Z,25.28
2022-07-28T05:35:50.729Z,25.37
2022-07-28T05:38:19.112Z,25.42
2022-07-28T05:40:50.799Z,25.45
2022-07-28T05:43:19.239Z,25.40
2022-07-28T05:45:47.593Z,25.43
2022-07-28T05:48:20.026Z,25.20
2022-07-28T05:50:48.878Z,25.56
2022-07-28T05:53:17.663Z,25.45
2022-07-28T05:55:57.852Z,25.44
2022-07-28T05:58:31.107Z,25.65
2022-07-28T06:01:00.416Z,25.59
2022-07-28T06:03:32.337Z,25.03
2022-07-28T06:06:14.711Z,25.50
2022-07-28T06:08:46.907Z,25.43
2022-07-28T06:11:21.795Z,25.50
2022-07-28T06:13:52.222Z,25.82
2022-07-28T06:16:21.656Z,26.02
2022-07-28T06:18:50.894Z,26.50
2022-07-28T06:21:19.233Z,26.52
2022-07-28T06:23:46.936Z,27.04
2022-07-28T06:26:14.858Z,27.15
2022-07-28T06:28:42.876Z,27.33
2022-07-28T06:31:10.620Z,27.63
2022-07-28T06:33:38.482Z,27.79
2022-07-28T06:36:06.603Z,27.75
2022-07-28T06:38:34.286Z,27.95
2022-07-28T06:41:02.114Z,28.33
2022-07-28T06:43:30.703Z,28.66
2022-07-28T06:45:58.654Z,28.80
2022-07-28T06:48:29.382Z,28.88
2022-07-28T06:50:59.791Z,28.51
2022-07-28T06:53:32.411Z,28.95
2022-07-28T06:56:03.820Z,28.66
2022-07-28T06:58:32.220Z,28.59
2022-07-28T07:01:00.242Z,28.70
2022-07-28T07:03:28.317Z,28.94
2022-07-28T07:05:56.033Z,29.22
2022-07-28T07:08:23.700Z,29.19
2022-07-28T07:10:52.646Z,29.26
2022-07-28T07:13:20.341Z,28.49
2022-07-28T07:15:48.104Z,29.16
2022-07-28T07:18:16.315Z,29.41
2022-07-28T07:20:44.076Z,29.66
2022-07-28T07:23:11.769Z,29.43
2022-07-28T07:25:40.429Z,29.47
2022-07-28T07:28:08.102Z,29.62
2022-07-28T07:30:35.992Z,29.81
2022-07-28T07:33:07.959Z,30.45
2022-07-28T07:35:38.893Z,30.44
2022-07-28T07:38:07.147Z,30.40
2022-07-28T07:40:35.340Z,30.25
2022-07-28T07:43:03.129Z,30.36
2022-07-28T07:45:31.521Z,30.57
2022-07-28T07:48:03.216Z,29.92
2022-07-28T07:50:31.343Z,29.60
2022-07-28T07:52:59.059Z,30.41
2022-07-28T07:55:27.538Z,30.17
2022-07-28T07:58:03.412Z,30.28
2022-07-28T08:00:31.394Z,30.31
2022-07-28T08:03:00.374Z,30.19
2022-07-28T08:05:35.830Z,30.43
2022-07-28T08:08:05.471Z,30.68
2022-07-28T08:10:38.260Z,30.74
2022-07-28T08:13:07.855Z,30.88
2022-07-28T08:15:35.614Z,30.95
2022-07-28T08:18:03.653Z,31.15
2022-07-28T08:20:31.693Z,31.42
2022-07-28T08:22:59.383Z,30.99
2022-07-28T08:25:27.276Z,30.93
2022-07-28T08:27:55.618Z,30.90
2022-07-28T08:30:26.246Z,31.19
2022-07-28T08:32:57.044Z,30.93
2022-07-28T08:35:34.593Z,30.69
2022-07-28T08:38:04.872Z,30.87
2022-07-28T08:40:32.812Z,30.82
2022-07-28T08:43:25.958Z,30.43
2022-07-28T08:45:58.556Z,30.54
2022-07-28T08:48:30.011Z,30.61
2022-07-28T08:51:18.796Z,30.32
2022-07-28T08:53:48.790Z,30.37
2022-07-28T08:56:17.457Z,30.57
2022-07-28T08:58:45.115Z,30.87
2022-07-28T09:01:13.316Z,30.83
2022-07-28T09:03:42.089Z,30.70
2022-07-28T09:06:09.940Z,31.35
2022-07-28T09:08:37.720Z,31.56
2022-07-28T09:11:08.192Z,31.59
2022-07-28T09:13:36.083Z,31.60
2022-07-28T09:16:06.645Z,31.36
2022-07-28T09:18:35.133Z,31.32
2022-07-28T09:21:02.928Z,31.44
2022-07-28T09:23:48.772Z,31.20
2022-07-28T09:26:18.006Z,31.20
2022-07-28T09:29:04.378Z,31.45
2022-07-28T09:31:32.084Z,31.74
2022-07-28T09:34:05.656Z,31.63
2022-07-28T09:36:41.179Z,31.13
2022-07-28T09:39:09.725Z,31.17
2022-07-28T09:41:55.404Z,31.30
2022-07-28T09:44:26.364Z,31.15
2022-07-28T09:46:56.621Z,31.24
2022-07-28T09:49:44.413Z,31.04
2022-07-28T09:52:12.381Z,30.96
2022-07-28T09:54:59.774Z,31.33
2022-07-28T09:57:28.636Z,31.37
2022-07-28T09:59:59.107Z,31.40
2022-07-28T10:02:29.672Z,31.48
2022-07-28T10:05:02.801Z,31.39
2022-07-28T10:07:30.779Z,31.65
2022-07-28T10:10:11.326Z,31.75
2022-07-28T10:12:39.416Z,31.91
2022-07-28T10:15:33.621Z,31.69
2022-07-28T10:18:02.291Z,31.61
2022-07-28T10:20:32.605Z,31.82
2022-07-28T10:23:05.648Z,31.91
2022-07-28T10:25:34.828Z,32.26
2022-07-28T10:28:04.004Z,32.41
2022-07-28T10:30:37.752Z,32.33
2022-07-28T10:33:13.656Z,31.80
2022-07-28T10:35:54.878Z,32.16
2022-07-28T10:38:28.043Z,32.48
2022-07-28T10:40:58.560Z,32.55
2022-07-28T10:43:27.953Z,32.30
2022-07-28T10:46:06.677Z,32.59
2022-07-28T10:48:38.271Z,32.67
2022-07-28T10:51:06.643Z,32.64
2022-07-28T10:53:43.437Z,32.56
2022-07-28T10:56:48.308Z,32.51
2022-07-28T11:00:12.178Z,32.60
2022-07-28T11:02:50.918Z,32.96
2022-07-28T11:05:39.316Z,32.73
2022-07-28T11:08:28.716Z,33.08
2022-07-28T11:11:00.857Z,32.84
2022-07-28T11:13:41.404Z,32.52
2022-07-28T11:16:15.765Z,32.81
2022-07-28T11:19:36.563Z,32.96
2022-07-28T11:22:18.618Z,33.42
2022-07-28T11:24:58.952Z,33.44
2022-07-28T11:27:49.866Z,33.29
2022-07-28T11:30:32.221Z,33.07
2022-07-28T11:33:00.830Z,33.37
2022-07-28T11:35:31.312Z,33.71
2022-07-28T11:38:01.998Z,34.06
2022-07-28T11:40:30.808Z,33.95
2022-07-28T11:43:35.987Z,33.76
2022-07-28T11:46:09.428Z,33.49
2022-07-28T11:48:41.606Z,33.90
2022-07-28T11:51:11.968Z,33.75
2022-07-28T11:53:44.859Z,33.83
2022-07-28T11:56:15.062Z,33.89
2022-07-28T11:58:43.475Z,34.08
2022-07-28T12:01:17.891Z,34.27
2022-07-28T12:03:59.077Z,33.91
2022-07-28T12:06:38.887Z,34.14
2022-07-28T12:09:07.988Z,34.18
2022-07-28T12:11:43.023Z,34.31
2022-07-28T12:14:14.016Z,34.33
2022-07-28T12:16:44.071Z,34.47
2022-07-28T12:19:16.606Z,34.59
2022-07-28T12:21:48.230Z,34.19
2022-07-28T12:24:28.210Z,34.25
2022-07-28T12:26:57.679Z,34.74
2022-07-28T12:29:35.913Z,34.75
2022-07-28T12:32:06.549Z,34.59
2022-07-28T12:34:35.823Z,34.50
2022-07-28T12:37:06.287Z,34.62
2022-07-28T12:39:36.932Z,34.17
2022-07-28T12:42:09.469Z,34.34
2022-07-28T12:44:42.798Z,34.66
2022-07-28T12:47:12.857Z,34.71
2022-07-28T12:49:43.192Z,34.40
2022-07-28T12:52:18.763Z,34.14
2022-07-28T12:54:53.371Z,34.18
2022-07-28T12:57:49.832Z,34.33
2022-07-28T13:00:21.463Z,34.29
2022-07-28T13:02:51.201Z,34.87
2022-07-28T13:05:57.753Z,34.62
2022-07-28T13:08:27.564Z,34.68
2022-07-28T13:10:58.979Z,34.59
2022-07-28T13:13:27.452Z,34.98
2022-07-28T13:16:20.828Z,34.50
2022-07-28T13:18:53.455Z,34.58
2022-07-28T13:21:57.432Z,35.04
2022-07-28T13:24:29.707Z,34.52
2022-07-28T13:26:59.267Z,34.19
2022-07-28T13:29:27.554Z,34.55
2022-07-28T13:31:55.674Z,34.70
2022-07-28T13:34:23.920Z,34.17
2022-07-28T13:36:52.596Z,34.27
2022-07-28T13:39:20.832Z,34.21
2022-07-28T13:41:57.466Z,33.80
2022-07-28T13:44:36.505Z,34.16
2022-07-28T13:47:06.001Z,33.67
2022-07-28T13:49:35.062Z,33.86
2022-07-28T13:52:04.772Z,33.97
2022-07-28T13:54:32.573Z,33.94
2022-07-28T13:57:16.454Z,33.70
2022-07-28T13:59:44.352Z,33.67
2022-07-28T14:02:15.839Z,34.22
2022-07-28T14:04:46.150Z,33.76
2022-07-28T14:07:21.127Z,33.36
2022-07-28T14:09:50.948Z,33.67
2022-07-28T14:12:18.693Z,33.73
2022-07-28T14:14:47.944Z,34.21
2022-07-28T14:20:11.590Z,34.07
2022-07-28T14:22:39.767Z,33.72
2022-07-28T14:25:07.990Z,33.73
2022-07-28T14:27:36.548Z,33.63
2022-07-28T14:30:06.088Z,33.57
2022-07-28T14:32:34.161Z,33.71
2022-07-28T14:35:02.574Z,33.89
2022-07-28T14:37:47.073Z,33.75
2022-07-28T14:40:18.806Z,33.54
2022-07-28T14:42:46.800Z,33.52
2022-07-28T14:45:14.530Z,33.03
2022-07-28T14:47:44.412Z,33.19
2022-07-28T14:50:14.254Z,33.08
2022-07-28T14:52:44.782Z,33.13
2022-07-28T14:55:13.481Z,33.21
2022-07-28T14:57:51.919Z,33.22
2022-07-28T15:00:24.713Z,33.31
2022-07-28T15:02:53.237Z,33.33
2022-07-28T15:05:22.240Z,33.25
2022-07-28T15:07:52.332Z,33.15
2022-07-28T15:10:20.462Z,33.30
2022-07-28T15:12:50.025Z,33.13
2022-07-28T15:15:18.488Z,32.84
2022-07-28T15:17:46.100Z,32.98
2022-07-28T15:20:13.828Z,33.07
2022-07-28T15:22:41.799Z,32.78
2022-07-28T15:25:09.702Z,33.15
2022-07-28T15:27:40.490Z,33.23
2022-07-28T15:30:12.893Z,33.17
2022-07-28T15:32:56.101Z,33.11
2022-07-28T15:35:25.951Z,33.05
2022-07-28T15:37:54.335Z,33.30
2022-07-28T15:40:22.354Z,33.00
2022-07-28T15:42:50.371Z,33.20
2022-07-28T15:45:18.201Z,33.00
2022-07-28T15:47:46.072Z,33.00
2022-07-28T15:50:14.181Z,33.29
2022-07-28T15:52:41.883Z,33.31
2022-07-28T15:55:09.812Z,33.35
2022-07-28T15:57:38.738Z,33.06
2022-07-28T16:00:07.520Z,32.88
2022-07-28T16:02:35.616Z,32.61
2022-07-28T16:05:03.773Z,32.60
2022-07-28T16:07:33.379Z,32.68
2022-07-28T16:10:03.062Z,32.29
2022-07-28T16:12:31.002Z,32.15
2022-07-28T16:14:58.711Z,32.41
2022-07-28T16:17:26.703Z,32.49
2022-07-28T16:19:54.385Z,32.39
2022-07-28T16:22:22.085Z,32.27
2022-07-28T16:24:50.979Z,32.10
2022-07-28T16:27:18.761Z,32.19
2022-07-28T16:29:46.615Z,32.14
2022-07-28T16:32:14.563Z,32.05
2022-07-28T16:34:42.260Z,32.30
2022-07-28T16:37:09.989Z,32.19
2022-07-28T16:39:38.932Z,31.94
2022-07-28T16:42:07.297Z,31.89
2022-07-28T16:44:37.682Z,31.77
2022-07-28T16:47:06.086Z,31.94
2022-07-28T16:49:34.113Z,31.72
2022-07-28T16:52:01.793Z,32.04
2022-07-28T16:54:29.896Z,31.92
2022-07-28T16:56:57.600Z,31.71
2022-07-28T16:59:25.322Z,31.46
2022-07-28T17:02:09.613Z,31.92
2022-07-28T17:04:38.923Z,31.66
2022-07-28T17:07:07.031Z,31.60
2022-07-28T17:09:34.725Z,31.61
2022-07-28T17:12:02.414Z,31.52
2022-07-28T17:14:30.377Z,31.48
2022-07-28T17:16:58.000Z,31.50
2022-07-28T17:19:25.733Z,31.67
2022-07-28T17:21:53.855Z,31.48
2022-07-28T17:24:21.484Z,31.36
2022-07-28T17:29:37.369Z,31.34
2022-07-28T17:32:05.750Z,31.56
2022-07-28T17:34:34.731Z,31.52
2022-07-28T17:37:03.027Z,31.49
2022-07-28T17:39:30.812Z,31.41
2022-07-28T17:41:58.746Z,31.10
2022-07-28T17:44:26.738Z,31.29
2022-07-28T17:46:54.514Z,31.20
2022-07-28T17:49:22.749Z,31.09
2022-07-28T17:51:51.012Z,31.31
2022-07-28T17:54:22.961Z,31.30
2022-07-28T17:56:52.786Z,31.25
2022-07-28T17:59:21.302Z,31.25
2022-07-28T18:01:49.051Z,31.07
2022-07-28T18:04:17.313Z,31.12
2022-07-28T18:06:46.002Z,31.02
2022-07-28T18:09:14.375Z,31.10
2022-07-28T18:11:57.961Z,30.95
2022-07-28T18:14:28.828Z,30.92
2022-07-28T18:16:57.944Z,30.98
2022-07-28T18:19:27.217Z,31.03
2022-07-28T18:21:56.098Z,30.70
2022-07-28T18:24:24.267Z,30.85
2022-07-28T18:26:52.756Z,31.02
2022-07-28T18:29:21.660Z,30.83
2022-07-28T18:31:53.342Z,30.80
2022-07-28T18:34:23.198Z,30.83
2022-07-28T18:36:54.013Z,30.75
2022-07-28T18:39:22.246Z,30.83
2022-07-28T18:41:49.926Z,30.73
2022-07-28T18:44:18.867Z,30.65
2022-07-28T18:46:47.413Z,30.67
2022-07-28T18:49:15.866Z,30.65
2022-07-28T18:51:44.912Z,30.44
2022-07-28T18:54:18.591Z,30.62
2022-07-28T18:56:47.086Z,30.38
2022-07-28T18:59:14.823Z,30.32
2022-07-28T19:01:42.689Z,30.00
2022-07-28T19:04:10.853Z,30.06
2022-07-28T19:06:38.898Z,30.09
2022-07-28T19:09:06.971Z,30.13
2022-07-28T19:11:35.116Z,30.15
2022-07-28T19:14:02.873Z,30.01
2022-07-28T19:16:30.612Z,29.84
2022-07-28T19:18:58.970Z,29.84
2022-07-28T19:21:26.677Z,30.00
2022-07-28T19:23:54.519Z,30.02
2022-07-28T19:26:23.858Z,29.91
2022-07-28T19:28:54.006Z,29.73
2022-07-28T19:31:22.076Z,29.65
2022-07-28T19:33:49.933Z,29.65
2022-07-28T19:36:17.669Z,29.52
2022-07-28T19:38:45.667Z,29.25
2022-07-28T19:41:13.641Z,29.49
2022-07-28T19:43:41.615Z,29.41
2022-07-28T19:46:10.308Z,29.28
2022-07-28T19:48:38.473Z,29.14
2022-07-28T19:51:06.428Z,28.98
2022-07-28T19:53:36.774Z,28.99
2022-07-28T19:56:07.176Z,28.93
2022-07-28T19:58:37.463Z,28.66
2022-07-28T20:01:06.344Z,28.81
2022-07-28T20:04:03.255Z,28.48
2022-07-28T20:06:24.643Z,28.84
2022-07-28T20:08:54.272Z,28.62
2022-07-28T20:11:21.981Z,28.61
2022-07-28T20:13:49.900Z,28.55
2022-07-28T20:16:18.079Z,28.58
2022-07-28T20:18:45.882Z,28.75
2022-07-28T20:21:13.586Z,28.57
2022-07-28T20:23:42.324Z,28.28
2022-07-28T20:26:10.228Z,28.08
2022-07-28T20:28:38.190Z,28.31
2022-07-28T20:31:13.568Z,28.43
2022-07-28T20:33:44.374Z,28.30
2022-07-28T20:36:12.590Z,28.12
2022-07-28T20:38:40.575Z,28.40
2022-07-28T20:41:08.492Z,28.09
2022-07-28T20:43:37.578Z,28.34
2022-07-28T20:46:05.552Z,27.98
2022-07-28T20:48:33.535Z,28.35
2022-07-28T20:51:01.528Z,28.01
2022-07-28T20:53:29.264Z,28.25
2022-07-28T20:55:57.087Z,27.97
2022-07-28T20:58:25.186Z,28.13
2022-07-28T21:00:52.995Z,28.33
2022-07-28T21:03:22.278Z,28.36
2022-07-28T21:05:50.381Z,27.89
2022-07-28T21:08:18.541Z,28.12
2022-07-28T21:10:46.401Z,28.24
2022-07-28T21:13:15.007Z,28.19
2022-07-28T21:15:42.869Z,28.17
2022-07-28T21:18:10.864Z,28.13
2022-07-28T21:20:38.898Z,28.16
2022-07-28T21:23:06.602Z,28.16
2022-07-28T21:25:34.801Z,27.90
2022-07-28T21:28:21.247Z,28.00
2022-07-28T21:30:48.871Z,28.12
2022-07-28T21:33:22.278Z,27.66
2022-07-28T21:35:50.887Z,27.33
2022-07-28T21:38:18.979Z,27.65
2022-07-28T21:40:46.609Z,27.79
2022-07-28T21:43:14.241Z,27.68
2022-07-28T21:45:42.326Z,27.67
2022-07-28T21:48:10.117Z,27.63
2022-07-28T21:50:37.786Z,27.43
2022-07-28T21:53:05.774Z,27.57
2022-07-28T21:55:33.563Z,27.45
2022-07-28T21:58:03.923Z,27.28
2022-07-28T22:00:32.056Z,27.38
2022-07-28T22:03:00.203Z,27.36
2022-07-28T22:05:28.294Z,27.27
2022-07-28T22:07:56.224Z,27.56
2022-07-28T22:10:24.407Z,27.52
2022-07-28T22:12:52.145Z,27.44
2022-07-28T22:15:19.841Z,27.36
2022-07-28T22:17:47.882Z,27.43
2022-07-28T22:20:15.589Z,27.35
2022-07-28T22:22:43.372Z,27.27
2022-07-28T22:25:11.339Z,27.37
2022-07-28T22:27:39.154Z,27.13
2022-07-28T22:30:07.730Z,27.01
2022-07-28T22:32:35.974Z,27.21
2022-07-28T22:35:03.902Z,27.12
2022-07-28T22:37:31.619Z,27.29
2022-07-28T22:39:59.669Z,26.60
2022-07-28T22:42:27.325Z,27.09
2022-07-28T22:44:55.042Z,27.23
2022-07-28T22:47:22.989Z,27.05
2022-07-28T22:49:53.798Z,26.93
2022-07-28T22:52:26.186Z,26.71
2022-07-28T22:54:55.286Z,26.83
2022-07-28T22:57:23.592Z,26.80
2022-07-28T22:59:51.448Z,26.87
2022-07-28T23:02:20.246Z,26.70
2022-07-28T23:04:51.733Z,27.20
2022-07-28T23:07:20.023Z,26.68
2022-07-28T23:10:09.913Z,26.96
2022-07-28T23:12:37.917Z,26.43
2022-07-28T23:15:06.543Z,26.30
2022-07-28T23:17:34.516Z,26.62
2022-07-28T23:20:02.678Z,26.30
2022-07-28T23:22:30.570Z,26.52
2022-07-28T23:24:58.500Z,26.40
2022-07-28T23:27:26.604Z,26.68
2022-07-28T23:29:54.486Z,26.57
2022-07-28T23:32:22.174Z,26.71
2022-07-28T23:34:50.178Z,26.63
2022-07-28T23:37:17.918Z,26.64
2022-07-28T23:39:45.602Z,26.75
2022-07-28T23:42:13.837Z,26.58
2022-07-28T23:44:41.546Z,26.60
2022-07-28T23:47:09.273Z,26.87
2022-07-28T23:49:37.287Z,26.58
2022-07-28T23:52:05.327Z,26.60
2022-07-28T23:54:33.029Z,26.47
2022-07-28T23:57:01.034Z,26.49
2022-07-28T23:59:28.814Z,26.14
